createdAt,value
2017-12-15T00:00:23.960Z,0.2
2017-12-15T00:01:33.988Z,0.31
2017-12-15T00:02:44.240Z,0.3
2017-12-15T00:03:54.152Z,0.36
2017-12-15T00:05:04.149Z,0.39
2017-12-15T00:06:14.403Z,0.33
2017-12-15T00:07:24.665Z,0.31
2017-12-15T00:08:34.932Z,0.35
2017-12-15T00:09:45.215Z,0.33
2017-12-15T00:10:55.459Z,0.38
2017-12-15T00:12:05.376Z,0.3
2017-12-15T00:13:15.371Z,0.27
2017-12-15T00:14:25.634Z,0.35
2017-12-15T00:15:35.757Z,0.31
2017-12-15T00:16:46.008Z,0.36
2017-12-15T00:17:56.334Z,0.33
2017-12-15T00:19:06.778Z,0.39
2017-12-15T00:20:17.021Z,0.33
2017-12-15T00:21:27.013Z,0.28
2017-12-15T00:22:37.054Z,0.27
2017-12-15T00:23:47.044Z,0.33
2017-12-15T00:24:57.072Z,0.3
2017-12-15T00:26:07.324Z,0.35
2017-12-15T00:27:17.212Z,0.24
2017-12-15T00:28:27.552Z,0.27
2017-12-15T00:29:37.816Z,0.21
2017-12-15T00:30:47.464Z,0.22
2017-12-15T00:31:57.858Z,0.24
2017-12-15T00:33:08.116Z,0.24
2017-12-15T00:34:18.402Z,0.17
2017-12-15T00:35:28.333Z,0.28
2017-12-15T00:36:38.593Z,0.14
2017-12-15T00:37:48.883Z,0.21
2017-12-15T00:38:59.185Z,0.28
2017-12-15T00:40:09.529Z,0.31
2017-12-15T00:41:19.789Z,0.28
2017-12-15T00:42:29.833Z,0.28
2017-12-15T00:43:40.130Z,0.31
2017-12-15T00:44:50.524Z,0.35
2017-12-15T00:46:00.882Z,0.3
2017-12-15T00:47:10.859Z,0.3
2017-12-15T00:48:21.142Z,0.31
2017-12-15T00:49:31.403Z,0.39
2017-12-15T00:50:41.652Z,0.39
2017-12-15T00:51:51.910Z,0.33
2017-12-15T00:53:02.295Z,0.33
2017-12-15T00:54:12.581Z,0.38
2017-12-15T00:55:22.560Z,0.43
2017-12-15T00:56:32.459Z,0.39
2017-12-15T00:57:42.143Z,0.54
2017-12-15T00:58:52.501Z,0.58
2017-12-15T01:00:02.751Z,0.53
2017-12-15T01:01:13.696Z,0.6
2017-12-15T01:02:24.018Z,0.56
2017-12-15T01:03:34.280Z,0.6
2017-12-15T01:04:44.557Z,0.58
2017-12-15T01:05:54.868Z,0.68
2017-12-15T01:07:05.138Z,0.64
2017-12-15T01:08:15.418Z,0.67
2017-12-15T01:09:25.679Z,0.71
2017-12-15T01:10:35.794Z,0.74
2017-12-15T01:11:46.087Z,0.74
2017-12-15T01:12:56.075Z,0.74
2017-12-15T01:14:06.311Z,0.71
2017-12-15T01:15:16.592Z,0.75
2017-12-15T01:16:26.220Z,0.75
2017-12-15T01:17:36.468Z,0.68
2017-12-15T01:18:46.148Z,0.75
2017-12-15T01:19:56.221Z,0.75
2017-12-15T01:21:06.898Z,0.67
2017-12-15T01:22:16.885Z,0.66
2017-12-15T01:23:26.660Z,0.6
2017-12-15T01:24:36.647Z,0.71
2017-12-15T01:25:46.957Z,0.66
2017-12-15T01:26:57.364Z,0.58
2017-12-15T01:28:07.385Z,0.61
2017-12-15T01:29:17.687Z,0.6
2017-12-15T01:30:27.728Z,0.56
2017-12-15T01:31:38.039Z,0.57
2017-12-15T01:32:48.062Z,0.6
2017-12-15T01:33:58.077Z,0.56
2017-12-15T01:35:08.471Z,0.56
2017-12-15T01:36:18.803Z,0.6
2017-12-15T01:37:28.782Z,0.6
2017-12-15T01:38:39.024Z,0.56
2017-12-15T01:39:49.030Z,0.54
2017-12-15T01:40:59.013Z,0.53
2017-12-15T01:42:08.924Z,0.46
2017-12-15T01:43:19.155Z,0.43
2017-12-15T01:44:28.772Z,0.38
2017-12-15T01:45:39.025Z,0.35
2017-12-15T01:46:49.294Z,0.3
2017-12-15T01:47:59.021Z,0.3
2017-12-15T01:49:08.736Z,0.25
2017-12-15T01:50:19.009Z,0.22
2017-12-15T01:51:29.258Z,0.2
2017-12-15T01:52:39.501Z,0.22
2017-12-15T01:53:49.743Z,0.24
2017-12-15T01:55:00.003Z,0.28
2017-12-15T01:56:10.300Z,0.31
2017-12-15T01:57:20.548Z,0.24
2017-12-15T01:58:30.792Z,0.25
2017-12-15T01:59:41.037Z,0.36
2017-12-15T02:00:51.284Z,0.38
2017-12-15T02:02:01.565Z,0.38
2017-12-15T02:03:11.844Z,0.43
2017-12-15T02:04:22.102Z,0.45
2017-12-15T02:05:32.405Z,0.45
2017-12-15T02:06:42.460Z,0.39
2017-12-15T02:07:52.726Z,0.42
2017-12-15T02:09:02.371Z,0.43
2017-12-15T02:10:12.626Z,0.43
2017-12-15T02:11:23.004Z,0.3
2017-12-15T02:12:33.260Z,0.33
2017-12-15T02:13:43.324Z,0.25
2017-12-15T02:14:53.314Z,0.2
2017-12-15T02:16:03.225Z,0.17
2017-12-15T02:17:13.291Z,0.21
2017-12-15T02:18:23.625Z,0.21
2017-12-15T02:19:33.895Z,0.08
2017-12-15T02:20:44.144Z,0.12
2017-12-15T02:21:54.393Z,0.09
2017-12-15T02:23:04.680Z,0.14
2017-12-15T02:24:14.653Z,0.16
2017-12-15T02:25:24.922Z,0.06
2017-12-15T02:26:35.194Z,0.12
2017-12-15T02:27:45.442Z,0.09
2017-12-15T02:28:55.416Z,0.12
2017-12-15T02:30:05.664Z,0.05
2017-12-15T02:31:15.961Z,0.2
2017-12-15T02:32:26.251Z,0.27
2017-12-15T02:33:36.257Z,0.2
2017-12-15T02:34:46.474Z,0.17
2017-12-15T02:35:56.898Z,0.17
2017-12-15T02:37:06.903Z,0.05
2017-12-15T02:38:17.156Z,0.08
2017-12-15T02:39:27.451Z,0.12
2017-12-15T02:40:38.048Z,0.17
2017-12-15T02:41:48.298Z,0.14
2017-12-15T02:42:58.526Z,0.09
2017-12-15T02:44:08.811Z,0.14
2017-12-15T02:45:19.073Z,0.08
2017-12-15T02:46:28.829Z,0.03
2017-12-15T02:47:39.094Z,0.09
2017-12-15T02:48:49.327Z,0.11
2017-12-15T02:49:59.568Z,0.11
2017-12-15T02:51:09.206Z,0.09
2017-12-15T02:52:19.502Z,0.12
2017-12-15T02:53:29.830Z,0.05
2017-12-15T02:54:39.826Z,0.05
2017-12-15T02:55:50.204Z,0.12
2017-12-15T02:57:00.490Z,0.08
2017-12-15T02:58:10.470Z,0.2
2017-12-15T02:59:20.743Z,0.22
2017-12-15T03:00:31.013Z,0.2
2017-12-15T03:01:41.502Z,0.17
2017-12-15T03:02:51.662Z,0.3
2017-12-15T03:04:01.642Z,0.3
2017-12-15T03:05:11.651Z,0.33
2017-12-15T03:06:21.924Z,0.38
2017-12-15T03:07:32.186Z,0.35
2017-12-15T03:08:42.053Z,0.31
2017-12-15T03:09:52.040Z,0.25
2017-12-15T03:11:02.333Z,0.36
2017-12-15T03:12:12.678Z,0.3
2017-12-15T03:13:23.171Z,0.31
2017-12-15T03:14:33.483Z,0.38
2017-12-15T03:15:43.744Z,0.33
2017-12-15T03:16:54.009Z,0.42
2017-12-15T03:18:04.023Z,0.38
2017-12-15T03:19:14.090Z,0.36
2017-12-15T03:20:24.479Z,0.39
2017-12-15T03:21:34.712Z,0.43
2017-12-15T03:22:44.787Z,0.48
2017-12-15T03:23:54.759Z,0.45
2017-12-15T03:25:05.006Z,0.48
2017-12-15T03:26:14.992Z,0.48
2017-12-15T03:27:25.032Z,0.48
2017-12-15T03:28:35.279Z,0.57
2017-12-15T03:29:45.525Z,0.5
2017-12-15T03:30:56.047Z,0.56
2017-12-15T03:32:06.360Z,0.45
2017-12-15T03:33:16.662Z,0.53
2017-12-15T03:34:26.711Z,0.56
2017-12-15T03:35:36.460Z,0.58
2017-12-15T03:36:46.437Z,0.6
2017-12-15T03:37:56.422Z,0.6
2017-12-15T03:39:06.695Z,0.6
2017-12-15T03:40:16.993Z,0.57
2017-12-15T03:41:27.000Z,0.63
2017-12-15T03:42:36.984Z,0.61
2017-12-15T03:43:47.031Z,0.67
2017-12-15T03:44:57.328Z,0.68
2017-12-15T03:46:07.321Z,0.64
2017-12-15T03:47:17.306Z,0.66
2017-12-15T03:48:27.542Z,0.74
2017-12-15T03:49:37.414Z,0.71
2017-12-15T03:50:47.181Z,0.66
2017-12-15T03:51:57.155Z,0.63
2017-12-15T03:53:06.791Z,0.67
2017-12-15T03:54:17.046Z,0.66
2017-12-15T03:55:27.308Z,0.64
2017-12-15T03:56:37.287Z,0.66
2017-12-15T03:57:47.553Z,0.75
2017-12-15T03:58:57.883Z,0.78
2017-12-15T04:00:08.142Z,0.82
2017-12-15T04:01:18.181Z,0.86
2017-12-15T04:02:28.531Z,0.86
2017-12-15T04:03:38.553Z,0.82
2017-12-15T04:04:48.916Z,0.82
2017-12-15T04:05:58.917Z,0.76
2017-12-15T04:07:09.166Z,0.68
2017-12-15T04:08:19.455Z,0.76
2017-12-15T04:09:29.462Z,0.76
2017-12-15T04:10:39.709Z,0.68
2017-12-15T04:11:49.694Z,0.67
2017-12-15T04:12:59.781Z,0.68
2017-12-15T04:14:09.754Z,0.68
2017-12-15T04:15:20.063Z,0.68
2017-12-15T04:16:30.299Z,0.71
2017-12-15T04:17:40.613Z,0.66
2017-12-15T04:18:50.860Z,0.6
2017-12-15T04:20:01.146Z,0.64
2017-12-15T04:21:11.407Z,0.68
2017-12-15T04:22:21.756Z,0.75
2017-12-15T04:23:32.008Z,0.72
2017-12-15T04:24:42.032Z,0.72
2017-12-15T04:25:52.021Z,0.81
2017-12-15T04:27:02.021Z,0.78
2017-12-15T04:28:12.292Z,0.79
2017-12-15T04:29:22.108Z,0.78
2017-12-15T04:30:32.083Z,0.82
2017-12-15T04:31:42.346Z,0.82
2017-12-15T04:32:52.581Z,0.79
2017-12-15T04:34:02.855Z,0.79
2017-12-15T04:35:13.102Z,0.84
2017-12-15T04:36:23.381Z,0.85
2017-12-15T04:37:33.743Z,0.81
2017-12-15T04:38:43.994Z,0.9
2017-12-15T04:39:54.096Z,0.92
2017-12-15T04:41:04.091Z,0.96
2017-12-15T04:42:14.387Z,0.88
2017-12-15T04:43:24.704Z,0.92
2017-12-15T04:44:35.038Z,0.93
2017-12-15T04:45:45.059Z,0.88
2017-12-15T04:46:55.036Z,0.97
2017-12-15T04:48:05.291Z,0.85
2017-12-15T04:49:15.545Z,1
2017-12-15T04:50:25.517Z,0.99
2017-12-15T04:51:35.506Z,1.02
2017-12-15T04:52:45.485Z,1
2017-12-15T04:53:55.485Z,1.12
2017-12-15T04:55:05.771Z,1.02
2017-12-15T04:56:16.024Z,1
2017-12-15T04:57:26.259Z,1.06
2017-12-15T04:58:36.517Z,1
2017-12-15T04:59:47.079Z,1.04
2017-12-15T05:00:57.367Z,1.04
2017-12-15T05:02:07.153Z,1.03
2017-12-15T05:03:17.420Z,1.02
2017-12-15T05:04:27.677Z,1.1
2017-12-15T05:05:37.964Z,1.03
2017-12-15T05:06:48.224Z,1.14
2017-12-15T05:07:58.588Z,1.1
2017-12-15T05:09:08.841Z,1
2017-12-15T05:10:19.080Z,1.02
2017-12-15T05:11:29.120Z,1.08
2017-12-15T05:12:39.412Z,1.03
2017-12-15T05:13:49.683Z,1.06
2017-12-15T05:14:59.936Z,1.04
2017-12-15T05:16:10.239Z,1.06
2017-12-15T05:17:20.260Z,1.06
2017-12-15T05:18:30.530Z,1
2017-12-15T05:19:40.562Z,0.86
2017-12-15T05:20:50.857Z,0.94
2017-12-15T05:22:00.863Z,1.03
2017-12-15T05:23:11.118Z,1.03
2017-12-15T05:24:21.368Z,1.02
2017-12-15T05:25:31.359Z,0.97
2017-12-15T05:26:41.331Z,0.96
2017-12-15T05:27:51.585Z,0.99
2017-12-15T05:29:01.870Z,0.9
2017-12-15T05:30:12.204Z,1.02
2017-12-15T05:31:22.525Z,0.94
2017-12-15T05:32:32.872Z,1
2017-12-15T05:33:42.841Z,1.06
2017-12-15T05:34:53.147Z,1.02
2017-12-15T05:36:03.408Z,1.12
2017-12-15T05:37:13.657Z,1.12
2017-12-15T05:38:23.273Z,1.1
2017-12-15T05:39:33.316Z,1.04
2017-12-15T05:40:43.604Z,1.04
2017-12-15T05:41:53.898Z,0.99
2017-12-15T05:43:04.157Z,0.99
2017-12-15T05:44:14.465Z,0.84
2017-12-15T05:45:25.707Z,0.9
2017-12-15T05:46:36.003Z,0.92
2017-12-15T05:47:46.277Z,0.93
2017-12-15T05:48:57.534Z,0.9
2017-12-15T05:50:07.795Z,0.86
2017-12-15T05:51:17.826Z,0.78
2017-12-15T05:52:28.166Z,0.84
2017-12-15T05:53:38.308Z,0.84
2017-12-15T05:54:48.348Z,0.81
2017-12-15T05:55:58.640Z,0.79
2017-12-15T05:57:08.530Z,0.74
2017-12-15T05:58:18.403Z,0.72
2017-12-15T05:59:28.754Z,0.76
2017-12-15T06:00:38.650Z,0.79
2017-12-15T06:01:48.891Z,0.78
2017-12-15T06:02:59.075Z,0.71
2017-12-15T06:04:09.369Z,0.68
2017-12-15T06:05:19.630Z,0.64
2017-12-15T06:06:29.857Z,0.71
2017-12-15T06:07:39.858Z,0.67
2017-12-15T06:08:50.142Z,0.71
2017-12-15T06:10:00.393Z,0.71
2017-12-15T06:11:10.683Z,0.68
2017-12-15T06:12:20.674Z,0.67
2017-12-15T06:13:30.976Z,0.64
2017-12-15T06:14:41.220Z,0.75
2017-12-15T06:15:51.191Z,0.64
2017-12-15T06:17:01.538Z,0.68
2017-12-15T06:18:11.899Z,0.81
2017-12-15T06:19:22.206Z,0.78
2017-12-15T06:20:32.458Z,0.9
2017-12-15T06:21:42.533Z,0.88
2017-12-15T06:22:52.816Z,0.85
2017-12-15T06:24:03.086Z,0.92
2017-12-15T06:25:13.329Z,0.93
2017-12-15T06:26:23.618Z,0.86
2017-12-15T06:27:33.906Z,0.97
2017-12-15T06:28:44.226Z,1
2017-12-15T06:29:54.210Z,0.88
2017-12-15T06:31:04.471Z,0.96
2017-12-15T06:32:14.776Z,0.99
2017-12-15T06:33:25.163Z,1.02
2017-12-15T06:34:35.421Z,1.06
2017-12-15T06:35:45.705Z,1
2017-12-15T06:36:56.920Z,1.02
2017-12-15T06:38:07.197Z,1.04
2017-12-15T06:39:17.444Z,1.08
2017-12-15T06:40:27.330Z,1.04
2017-12-15T06:41:37.648Z,1.02
2017-12-15T06:42:47.659Z,1.02
2017-12-15T06:43:57.943Z,1.02
2017-12-15T06:45:08.204Z,1.06
2017-12-15T06:46:18.448Z,1.04
2017-12-15T06:47:28.440Z,1.08
2017-12-15T06:48:38.689Z,1.08
2017-12-15T06:49:48.944Z,1.04
2017-12-15T06:50:59.227Z,1.02
2017-12-15T06:52:09.528Z,1.02
2017-12-15T06:53:19.572Z,1.12
2017-12-15T06:54:29.899Z,1.12
2017-12-15T06:55:39.890Z,1.08
2017-12-15T06:56:50.295Z,1.12
2017-12-15T06:58:00.536Z,1.24
2017-12-15T06:59:10.637Z,1.25
2017-12-15T07:00:20.371Z,1.2
2017-12-15T07:01:30.337Z,1.22
2017-12-15T07:02:40.622Z,1.24
2017-12-15T07:03:50.528Z,1.24
2017-12-15T07:05:00.511Z,1.15
2017-12-15T07:06:10.865Z,1.12
2017-12-15T07:07:20.848Z,1.1
2017-12-15T07:08:30.766Z,1.15
2017-12-15T07:09:41.149Z,1.24
2017-12-15T07:10:51.546Z,1.25
2017-12-15T07:12:01.607Z,1.24
2017-12-15T07:13:11.519Z,1.22
2017-12-15T07:14:21.735Z,1.22
2017-12-15T07:15:31.981Z,1.25
2017-12-15T07:16:42.221Z,1.21
2017-12-15T07:17:52.463Z,1.25
2017-12-15T07:19:02.740Z,1.29
2017-12-15T07:20:13.115Z,1.3
2017-12-15T07:21:23.446Z,1.35
2017-12-15T07:22:33.301Z,1.36
2017-12-15T07:23:43.707Z,1.29
2017-12-15T07:24:53.721Z,1.29
2017-12-15T07:26:03.961Z,1.29
2017-12-15T07:27:14.221Z,1.32
2017-12-15T07:28:24.197Z,1.28
2017-12-15T07:29:34.178Z,1.33
2017-12-15T07:30:44.161Z,1.33
2017-12-15T07:31:54.207Z,1.36
2017-12-15T07:33:04.735Z,1.3
2017-12-15T07:34:14.811Z,1.33
2017-12-15T07:35:24.820Z,1.39
2017-12-15T07:36:34.571Z,1.43
2017-12-15T07:37:44.187Z,1.4
2017-12-15T07:38:54.348Z,1.47
2017-12-15T07:40:04.465Z,1.47
2017-12-15T07:41:14.828Z,1.43
2017-12-15T07:42:24.855Z,1.4
2017-12-15T07:43:34.824Z,1.47
2017-12-15T07:44:45.137Z,1.47
2017-12-15T07:45:55.180Z,1.39
2017-12-15T07:47:05.245Z,1.4
2017-12-15T07:48:15.548Z,1.43
2017-12-15T07:49:25.298Z,1.43
2017-12-15T07:50:35.398Z,1.48
2017-12-15T07:51:45.733Z,1.48
2017-12-15T07:52:55.840Z,1.42
2017-12-15T07:54:05.540Z,1.43
2017-12-15T07:55:14.880Z,1.48
2017-12-15T07:56:24.682Z,1.48
2017-12-15T07:57:34.976Z,1.5
2017-12-15T07:58:45.227Z,1.38
2017-12-15T07:59:55.523Z,1.48
2017-12-15T08:01:05.807Z,1.43
2017-12-15T08:02:15.900Z,1.5
2017-12-15T08:03:26.199Z,1.42
2017-12-15T08:04:35.995Z,1.5
2017-12-15T08:05:46.559Z,1.4
2017-12-15T08:06:56.861Z,1.51
2017-12-15T08:08:07.119Z,1.47
2017-12-15T08:09:17.384Z,1.54
2017-12-15T08:10:27.688Z,1.47
2017-12-15T08:11:37.942Z,1.47
2017-12-15T08:12:48.017Z,1.48
2017-12-15T08:13:58.272Z,1.5
2017-12-15T08:15:08.311Z,1.53
2017-12-15T08:16:18.311Z,1.48
2017-12-15T08:17:28.591Z,1.42
2017-12-15T08:18:38.930Z,1.47
2017-12-15T08:19:49.176Z,1.53
2017-12-15T08:20:59.288Z,1.51
2017-12-15T08:22:09.033Z,1.57
2017-12-15T08:23:19.151Z,1.53
2017-12-15T08:24:29.074Z,1.51
2017-12-15T08:25:39.333Z,1.53
2017-12-15T08:26:49.608Z,1.57
2017-12-15T08:27:59.888Z,1.5
2017-12-15T08:29:10.139Z,1.53
2017-12-15T08:30:20.401Z,1.64
2017-12-15T08:31:30.397Z,1.57
2017-12-15T08:32:40.683Z,1.66
2017-12-15T08:33:50.936Z,1.55
2017-12-15T08:35:01.198Z,1.73
2017-12-15T08:36:11.448Z,1.73
2017-12-15T08:37:21.771Z,1.8
2017-12-15T08:38:32.079Z,1.72
2017-12-15T08:39:42.323Z,1.76
2017-12-15T08:40:52.610Z,1.82
2017-12-15T08:42:02.929Z,1.87
2017-12-15T08:43:13.238Z,1.79
2017-12-15T08:44:22.872Z,1.84
2017-12-15T08:45:33.192Z,1.88
2017-12-15T08:46:44.445Z,1.87
2017-12-15T08:47:55.677Z,1.9
2017-12-15T08:49:06.174Z,2.01
2017-12-15T08:50:16.439Z,1.92
2017-12-15T08:51:26.724Z,1.91
2017-12-15T08:52:36.730Z,1.88
2017-12-15T08:53:46.701Z,1.9
2017-12-15T08:54:56.952Z,1.84
2017-12-15T08:56:07.234Z,1.92
2017-12-15T08:57:17.670Z,1.91
2017-12-15T08:58:27.922Z,1.85
2017-12-15T08:59:38.215Z,1.9
2017-12-15T09:00:48.232Z,1.91
2017-12-15T09:01:58.506Z,1.97
2017-12-15T09:03:08.488Z,2.09
2017-12-15T09:04:18.852Z,2.06
2017-12-15T09:05:29.165Z,2.1
2017-12-15T09:06:39.502Z,2.1
2017-12-15T09:07:49.770Z,2.19
2017-12-15T09:08:59.811Z,2.19
2017-12-15T09:10:10.093Z,2.24
2017-12-15T09:11:52.214Z,2.28
2017-12-15T09:13:02.510Z,2.21
2017-12-15T09:14:12.538Z,2.21
2017-12-15T09:15:22.858Z,2.28
2017-12-15T09:16:33.107Z,2.18
2017-12-15T09:17:43.399Z,2.16
2017-12-15T09:18:53.754Z,2.16
2017-12-15T09:20:03.500Z,2.23
2017-12-15T09:21:13.496Z,2.18
2017-12-15T09:22:23.766Z,2.21
2017-12-15T09:23:34.043Z,2.21
2017-12-15T09:24:44.290Z,2.21
2017-12-15T09:25:53.912Z,2.16
2017-12-15T09:27:04.173Z,2.24
2017-12-15T09:28:14.219Z,2.28
2017-12-15T09:29:24.482Z,2.3
2017-12-15T09:30:34.804Z,2.33
2017-12-15T09:31:45.114Z,2.27
2017-12-15T09:32:55.540Z,2.34
2017-12-15T09:34:05.845Z,2.33
2017-12-15T09:35:16.110Z,2.33
2017-12-15T09:36:26.143Z,2.41
2017-12-15T09:37:37.420Z,2.34
2017-12-15T09:38:47.310Z,2.39
2017-12-15T09:39:57.560Z,2.44
2017-12-15T09:41:07.562Z,2.48
2017-12-15T09:42:17.579Z,2.45
2017-12-15T09:43:27.849Z,2.53
2017-12-15T09:44:38.141Z,2.56
2017-12-15T09:45:48.579Z,2.66
2017-12-15T09:46:58.850Z,2.74
2017-12-15T09:48:09.175Z,2.82
2017-12-15T09:49:20.431Z,2.87
2017-12-15T09:50:30.176Z,3
2017-12-15T09:51:40.167Z,3.06
2017-12-15T09:52:50.429Z,3.16
2017-12-15T09:54:00.308Z,3.4
2017-12-15T09:55:10.625Z,3.8
2017-12-15T09:56:20.942Z,4.19
2017-12-15T09:57:31.271Z,4.5
2017-12-15T09:58:41.083Z,4.9
2017-12-15T09:59:51.086Z,5.22
2017-12-15T10:01:00.964Z,5.54
2017-12-15T10:02:11.298Z,5.96
2017-12-15T10:03:21.584Z,6.27
2017-12-15T10:04:31.851Z,6.53
2017-12-15T10:05:42.107Z,6.75
2017-12-15T10:06:51.726Z,7.03
2017-12-15T10:08:02.063Z,7.13
2017-12-15T10:09:11.904Z,7.26
2017-12-15T10:10:21.672Z,7.56
2017-12-15T10:11:31.984Z,7.36
2017-12-15T10:12:42.242Z,7.26
2017-12-15T10:13:52.269Z,7.26
2017-12-15T10:15:02.529Z,7.36
2017-12-15T10:16:12.523Z,7.62
2017-12-15T10:17:22.779Z,7.77
2017-12-15T10:18:33.040Z,7.98
2017-12-15T10:19:43.340Z,8.13
2017-12-15T10:20:53.716Z,8.39
2017-12-15T10:22:03.601Z,8.57
2017-12-15T10:23:13.851Z,8.71
2017-12-15T10:24:24.117Z,8.97
2017-12-15T10:25:34.191Z,9.11
2017-12-15T10:26:44.493Z,9.2
2017-12-15T10:27:54.596Z,9.26
2017-12-15T10:29:04.839Z,9.33
2017-12-15T10:30:14.861Z,9.38
2017-12-15T10:31:25.243Z,9.55
2017-12-15T10:32:35.577Z,9.65
2017-12-15T10:33:45.886Z,9.75
2017-12-15T10:34:56.222Z,9.89
2017-12-15T10:36:06.114Z,10
2017-12-15T10:37:16.436Z,10.08
2017-12-15T10:38:26.571Z,10.15
2017-12-15T10:39:36.924Z,10.02
2017-12-15T10:40:46.929Z,9.98
2017-12-15T10:41:57.318Z,9.78
2017-12-15T10:43:07.583Z,9.65
2017-12-15T10:44:18.028Z,9.58
2017-12-15T10:45:28.427Z,9.38
2017-12-15T10:46:38.596Z,9.12
2017-12-15T10:47:48.864Z,8.74
2017-12-15T10:48:59.129Z,8.58
2017-12-15T10:50:09.395Z,8.3
2017-12-15T10:51:19.686Z,7.87
2017-12-15T10:52:29.942Z,7.79
2017-12-15T10:53:40.210Z,7.48
2017-12-15T10:54:50.591Z,7.15
2017-12-15T10:56:00.919Z,6.92
2017-12-15T10:57:11.201Z,6.75
2017-12-15T10:58:21.516Z,6.44
2017-12-15T10:59:31.849Z,6.26
2017-12-15T11:00:42.203Z,6.05
2017-12-15T11:01:52.474Z,5.77
2017-12-15T11:03:02.720Z,5.71
2017-12-15T11:04:12.988Z,5.53
2017-12-15T11:05:22.990Z,5.35
2017-12-15T11:06:33.021Z,5.29
2017-12-15T11:07:43.297Z,5.13
2017-12-15T11:08:53.684Z,5.08
2017-12-15T11:10:03.966Z,4.93
2017-12-15T11:11:14.268Z,4.7
2017-12-15T11:12:24.524Z,4.7
2017-12-15T11:13:34.521Z,4.47
2017-12-15T11:14:44.782Z,4.41
2017-12-15T11:15:55.173Z,4.33
2017-12-15T11:17:05.097Z,4.28
2017-12-15T11:18:15.428Z,4.2
2017-12-15T11:19:25.420Z,4.18
2017-12-15T11:20:36.655Z,4.05
2017-12-15T11:21:46.819Z,4.03
2017-12-15T11:22:57.076Z,4.08
2017-12-15T11:24:07.241Z,4.01
2017-12-15T11:25:17.278Z,3.94
2017-12-15T11:26:27.556Z,3.83
2017-12-15T11:27:37.594Z,3.77
2017-12-15T11:28:47.892Z,3.8
2017-12-15T11:29:58.257Z,3.76
2017-12-15T11:31:08.530Z,3.8
2017-12-15T11:32:18.833Z,3.69
2017-12-15T11:33:29.166Z,3.79
2017-12-15T11:34:39.429Z,3.82
2017-12-15T11:35:49.820Z,3.76
2017-12-15T11:37:00.095Z,3.69
2017-12-15T11:38:10.426Z,3.72
2017-12-15T11:39:20.449Z,3.68
2017-12-15T11:40:30.470Z,3.68
2017-12-15T11:41:40.533Z,3.64
2017-12-15T11:42:50.814Z,3.67
2017-12-15T11:44:01.114Z,3.62
2017-12-15T11:45:11.448Z,3.62
2017-12-15T11:46:21.589Z,3.59
2017-12-15T11:47:31.633Z,3.55
2017-12-15T11:48:41.888Z,3.57
2017-12-15T11:49:52.143Z,3.59
2017-12-15T11:51:02.396Z,3.54
2017-12-15T11:52:12.650Z,3.52
2017-12-15T11:53:22.918Z,3.58
2017-12-15T11:54:33.195Z,3.67
2017-12-15T11:55:43.499Z,3.5
2017-12-15T11:56:53.840Z,3.59
2017-12-15T11:58:03.875Z,3.61
2017-12-15T11:59:14.140Z,3.59
2017-12-15T12:00:24.459Z,3.55
2017-12-15T12:01:34.460Z,3.59
2017-12-15T12:02:44.752Z,3.54
2017-12-15T12:03:55.008Z,3.62
2017-12-15T12:05:05.327Z,3.57
2017-12-15T12:06:15.666Z,3.52
2017-12-15T12:07:25.674Z,3.61
2017-12-15T12:08:36.031Z,3.58
2017-12-15T12:09:46.941Z,3.58
2017-12-15T12:10:57.250Z,3.55
2017-12-15T12:12:07.327Z,3.54
2017-12-15T12:13:17.610Z,3.54
2017-12-15T12:14:27.940Z,3.57
2017-12-15T12:15:37.925Z,3.55
2017-12-15T12:16:47.552Z,3.47
2017-12-15T12:17:57.597Z,3.47
2017-12-15T12:19:08.848Z,3.47
2017-12-15T12:20:19.122Z,3.37
2017-12-15T12:21:29.531Z,3.43
2017-12-15T12:22:39.782Z,3.36
2017-12-15T12:23:50.109Z,3.4
2017-12-15T12:24:59.722Z,3.43
2017-12-15T12:26:09.986Z,3.42
2017-12-15T12:27:20.239Z,3.44
2017-12-15T12:28:30.292Z,3.42
2017-12-15T12:29:40.278Z,3.37
2017-12-15T12:30:50.528Z,3.31
2017-12-15T12:32:00.778Z,3.32
2017-12-15T12:33:11.211Z,3.24
2017-12-15T12:34:21.487Z,3.25
2017-12-15T12:35:31.243Z,3.28
2017-12-15T12:36:41.505Z,3.29
2017-12-15T12:37:51.758Z,3.26
2017-12-15T12:39:01.787Z,3.29
2017-12-15T12:40:11.767Z,3.22
2017-12-15T12:41:23.007Z,3.26
2017-12-15T12:42:33.286Z,3.32
2017-12-15T12:43:43.572Z,3.28
2017-12-15T12:44:53.987Z,3.25
2017-12-15T12:46:04.299Z,3.39
2017-12-15T12:47:14.352Z,3.31
2017-12-15T12:48:25.565Z,3.31
2017-12-15T12:49:35.868Z,3.36
2017-12-15T12:50:46.123Z,3.28
2017-12-15T12:51:56.381Z,3.44
2017-12-15T12:53:06.438Z,3.37
2017-12-15T12:54:16.572Z,3.43
2017-12-15T12:55:26.342Z,3.42
2017-12-15T12:56:36.425Z,3.4
2017-12-15T12:57:46.775Z,3.43
2017-12-15T12:58:57.311Z,3.47
2017-12-15T13:00:07.356Z,3.55
2017-12-15T13:01:17.665Z,3.55
2017-12-15T13:02:27.935Z,3.57
2017-12-15T13:03:38.193Z,3.55
2017-12-15T13:04:48.204Z,3.55
2017-12-15T13:05:58.538Z,3.55
2017-12-15T13:07:08.649Z,3.69
2017-12-15T13:08:18.029Z,3.67
2017-12-15T13:09:28.304Z,3.72
2017-12-15T13:10:38.667Z,3.69
2017-12-15T13:11:48.937Z,3.69
2017-12-15T13:13:00.210Z,3.69
2017-12-15T13:14:10.467Z,3.67
2017-12-15T13:15:20.459Z,3.77
2017-12-15T13:16:30.762Z,3.86
2017-12-15T13:17:41.032Z,3.79
2017-12-15T13:18:51.383Z,3.82
2017-12-15T13:20:01.675Z,3.83
2017-12-15T13:21:11.606Z,3.77
2017-12-15T13:22:21.949Z,3.76
2017-12-15T13:23:32.228Z,3.79
2017-12-15T13:24:42.302Z,3.83
2017-12-15T13:25:52.667Z,3.79
2017-12-15T13:27:02.958Z,3.75
2017-12-15T13:28:13.249Z,3.67
2017-12-15T13:29:23.521Z,3.67
2017-12-15T13:30:33.794Z,3.75
2017-12-15T13:31:44.088Z,3.83
2017-12-15T13:32:54.080Z,3.72
2017-12-15T13:34:04.278Z,3.73
2017-12-15T13:35:14.587Z,3.85
2017-12-15T13:36:24.886Z,3.82
2017-12-15T13:37:35.148Z,3.69
2017-12-15T13:38:45.538Z,3.72
2017-12-15T13:39:55.585Z,3.76
2017-12-15T13:41:05.585Z,3.67
2017-12-15T13:42:15.854Z,3.76
2017-12-15T13:43:25.912Z,3.73
2017-12-15T13:44:36.298Z,3.68
2017-12-15T13:45:46.236Z,3.76
2017-12-15T13:46:56.201Z,3.73
2017-12-15T13:48:06.545Z,3.68
2017-12-15T13:49:16.844Z,3.77
2017-12-15T13:50:27.131Z,3.77
2017-12-15T13:51:38.372Z,3.8
2017-12-15T13:52:48.766Z,3.68
2017-12-15T13:54:30.911Z,3.69
2017-12-15T13:55:41.220Z,3.58
2017-12-15T13:56:51.554Z,3.54
2017-12-15T13:58:02.817Z,3.58
2017-12-15T13:59:13.147Z,3.47
2017-12-15T14:00:23.091Z,3.43
2017-12-15T14:01:33.437Z,3.37
2017-12-15T14:02:43.749Z,3.37
2017-12-15T14:03:53.784Z,3.34
2017-12-15T14:05:04.189Z,3.31
2017-12-15T14:06:14.527Z,3.24
2017-12-15T14:07:24.525Z,3.26
2017-12-15T14:08:34.808Z,3.24
2017-12-15T14:09:44.451Z,3.19
2017-12-15T14:10:54.791Z,3.22
2017-12-15T14:12:05.100Z,3.16
2017-12-15T14:13:15.053Z,3.15
2017-12-15T14:14:25.068Z,3.11
2017-12-15T14:15:35.099Z,3.15
2017-12-15T14:16:45.472Z,3.07
2017-12-15T14:17:55.791Z,3.1
2017-12-15T14:19:06.069Z,3.06
2017-12-15T14:20:16.624Z,3.06
2017-12-15T14:21:26.933Z,2.99
2017-12-15T14:22:37.139Z,3.02
2017-12-15T14:23:47.445Z,2.99
2017-12-15T14:24:57.745Z,3.08
2017-12-15T14:26:08.730Z,2.97
2017-12-15T14:27:19.054Z,2.96
2017-12-15T14:28:29.155Z,2.91
2017-12-15T14:29:39.437Z,2.88
2017-12-15T14:30:49.711Z,2.94
2017-12-15T14:32:00.009Z,2.94
2017-12-15T14:33:10.318Z,2.89
2017-12-15T14:34:20.641Z,2.89
2017-12-15T14:35:30.390Z,2.91
2017-12-15T14:36:40.507Z,2.87
2017-12-15T14:37:50.889Z,2.87
2017-12-15T14:39:01.268Z,2.85
2017-12-15T14:40:11.329Z,2.85
2017-12-15T14:41:21.609Z,2.79
2017-12-15T14:42:31.765Z,2.84
2017-12-15T14:43:42.048Z,2.79
2017-12-15T14:44:52.137Z,2.84
2017-12-15T14:46:01.766Z,2.77
2017-12-15T14:47:12.147Z,2.81
2017-12-15T14:48:22.424Z,2.84
2017-12-15T14:49:32.727Z,2.81
2017-12-15T14:50:42.467Z,2.81
2017-12-15T14:51:52.558Z,2.73
2017-12-15T14:53:02.881Z,2.81
2017-12-15T14:54:12.627Z,2.82
2017-12-15T14:55:22.709Z,2.88
2017-12-15T14:56:33.032Z,2.87
2017-12-15T14:57:43.311Z,2.91
2017-12-15T14:58:53.335Z,2.88
2017-12-15T15:00:03.072Z,2.85
2017-12-15T15:01:13.402Z,2.89
2017-12-15T15:02:23.677Z,2.81
2017-12-15T15:03:33.687Z,2.85
2017-12-15T15:04:44.034Z,2.85
2017-12-15T15:05:54.240Z,2.88
2017-12-15T15:07:04.521Z,2.84
2017-12-15T15:08:14.828Z,2.84
2017-12-15T15:09:25.133Z,2.82
2017-12-15T15:10:35.416Z,2.84
2017-12-15T15:11:45.816Z,2.77
2017-12-15T15:12:56.128Z,2.74
2017-12-15T15:14:06.451Z,2.7
2017-12-15T15:15:16.742Z,2.7
2017-12-15T15:16:27.073Z,2.63
2017-12-15T15:17:37.431Z,2.51
2017-12-15T15:18:47.766Z,2.56
2017-12-15T15:19:57.893Z,2.55
2017-12-15T15:21:08.179Z,2.51
2017-12-15T15:22:18.296Z,2.62
2017-12-15T15:23:28.557Z,2.52
2017-12-15T15:24:38.900Z,2.51
2017-12-15T15:25:49.155Z,2.63
2017-12-15T15:26:59.453Z,2.63
2017-12-15T15:28:08.951Z,2.69
2017-12-15T15:29:19.228Z,2.64
2017-12-15T15:30:29.483Z,2.59
2017-12-15T15:31:40.702Z,2.56
2017-12-15T15:32:51.027Z,2.66
2017-12-15T15:34:01.078Z,2.53
2017-12-15T15:35:11.345Z,2.52
2017-12-15T15:36:21.625Z,2.48
2017-12-15T15:37:31.655Z,2.49
2017-12-15T15:38:41.962Z,2.45